createdAt,value
2019-02-23T00:02:00.904Z,101050.99
2019-02-23T00:04:29.571Z,101047.34
2019-02-23T00:06:58.240Z,101040.77
2019-02-23T00:09:26.925Z,101035.77
2019-02-23T00:11:55.913Z,101045.78
2019-02-23T00:14:24.603Z,101039.70
2019-02-23T00:16:53.287Z,101042.62
2019-02-23T00:19:25.315Z,101036.98
2019-02-23T00:21:53.173Z,101034.33
2019-02-23T00:24:21.788Z,101037.55
2019-02-23T00:26:50.741Z,101031.73
2019-02-23T00:29:19.649Z,101035.35
2019-02-23T00:31:48.577Z,101033.67
2019-02-23T00:34:17.474Z,101030.05
2019-02-23T00:36:46.401Z,101025.84
2019-02-23T00:39:15.183Z,101023.53
2019-02-23T00:41:43.869Z,101030.92
2019-02-23T00:44:12.829Z,101025.95
2019-02-23T00:46:41.504Z,101018.17
2019-02-23T00:49:10.422Z,101016.81
2019-02-23T00:51:39.344Z,101007.92
2019-02-23T00:54:08.006Z,101023.19
2019-02-23T00:56:36.695Z,101029.03
2019-02-23T00:59:05.652Z,101020.59
2019-02-23T01:01:34.645Z,101011.98
2019-02-23T01:04:03.634Z,101022.73
2019-02-23T01:06:32.944Z,101016.56
2019-02-23T01:09:01.930Z,101010.59
2019-02-23T01:11:30.638Z,101014.04
2019-02-23T01:13:59.590Z,101016.61
2019-02-23T01:16:28.278Z,101022.80
2019-02-23T01:18:57.673Z,101018.05
2019-02-23T01:21:26.804Z,101019.64
2019-02-23T01:23:55.490Z,101022.08
2019-02-23T01:26:24.195Z,101016.31
2019-02-23T01:28:53.181Z,101008.78
2019-02-23T01:31:21.903Z,101009.08
2019-02-23T01:33:50.937Z,101006.05
2019-02-23T01:36:20.038Z,101006.37
2019-02-23T01:38:51.280Z,101011.41
2019-02-23T01:41:20.269Z,101014.13
2019-02-23T01:43:49.020Z,101008.39
2019-02-23T01:46:17.695Z,101015.73
2019-02-23T01:48:48.051Z,100998.98
2019-02-23T01:51:16.747Z,100997.64
2019-02-23T01:54:05.791Z,100980.28
2019-02-23T01:56:37.906Z,100971.79
2019-02-23T01:59:06.880Z,100965.06
2019-02-23T02:01:35.558Z,100959.31
2019-02-23T02:04:14.598Z,100960.16
2019-02-23T02:06:43.294Z,100956.82
2019-02-23T02:09:12.110Z,100961.34
2019-02-23T02:11:41.088Z,100962.87
2019-02-23T02:14:10.424Z,100968.77
2019-02-23T02:16:39.602Z,100969.24
2019-02-23T02:19:08.589Z,100967.13
2019-02-23T02:21:37.276Z,100973.38
2019-02-23T02:24:06.230Z,100959.42
2019-02-23T02:26:35.311Z,100959.30
2019-02-23T02:29:04.010Z,100958.33
2019-02-23T02:31:32.952Z,100947.48
2019-02-23T02:34:11.971Z,100938.68
2019-02-23T02:36:41.232Z,100932.02
2019-02-23T02:39:11.780Z,100930.80
2019-02-23T02:41:40.700Z,100932.27
2019-02-23T02:44:09.445Z,100930.03
2019-02-23T02:49:25.927Z,100927.45
2019-02-23T02:51:54.892Z,100923.72
2019-02-23T02:54:23.634Z,100916.03
2019-02-23T02:56:52.358Z,100913.89
2019-02-23T02:59:21.241Z,100907.53
2019-02-23T03:01:50.513Z,100906.44
2019-02-23T03:04:19.806Z,100903.74
2019-02-23T03:06:48.455Z,100894.30
2019-02-23T03:09:17.120Z,100879.16
2019-02-23T03:11:45.772Z,100879.92
2019-02-23T03:14:14.820Z,100886.55
2019-02-23T03:16:43.470Z,100883.20
2019-02-23T03:19:12.443Z,100866.06
2019-02-23T03:21:41.412Z,100866.44
2019-02-23T03:24:10.390Z,100875.04
2019-02-23T03:26:39.302Z,100881.15
2019-02-23T03:29:07.991Z,100882.37
2019-02-23T03:31:37.294Z,100882.38
2019-02-23T03:34:05.972Z,100891.22
2019-02-23T03:36:34.684Z,100894.59
2019-02-23T03:39:04.889Z,100913.52
2019-02-23T03:41:33.876Z,100909.42
2019-02-23T03:44:02.623Z,100913.84
2019-02-23T03:46:31.297Z,100917.52
2019-02-23T03:48:59.971Z,100910.89
2019-02-23T03:51:29.426Z,100914.61
2019-02-23T03:53:58.097Z,100917.30
2019-02-23T03:56:26.775Z,100919.16
2019-02-23T03:58:55.741Z,100929.45
2019-02-23T04:01:24.421Z,100923.53
2019-02-23T04:03:53.372Z,100922.78
2019-02-23T04:06:22.676Z,100912.24
2019-02-23T04:08:51.663Z,100915.83
2019-02-23T04:11:20.650Z,100916.72
2019-02-23T04:13:49.305Z,100907.36
2019-02-23T04:16:18.342Z,100899.14
2019-02-23T04:18:47.327Z,100907.23
2019-02-23T04:21:16.525Z,100912.80
2019-02-23T04:23:45.181Z,100914.98
2019-02-23T04:26:13.872Z,100916.46
2019-02-23T04:28:42.545Z,100912.80
2019-02-23T04:31:11.334Z,100910.44
2019-02-23T04:33:40.169Z,100921.41
2019-02-23T04:36:09.464Z,100918.34
2019-02-23T04:38:38.657Z,100919.42
2019-02-23T04:41:07.575Z,100925.31
2019-02-23T04:43:36.589Z,100921.77
2019-02-23T04:46:05.537Z,100914.41
2019-02-23T04:48:34.834Z,100925.61
2019-02-23T04:51:13.899Z,100922.86
2019-02-23T04:53:34.353Z,100931.34
2019-02-23T04:56:03.428Z,100926.66
2019-02-23T04:58:33.475Z,100927.67
2019-02-23T05:01:02.130Z,100923.59
2019-02-23T05:03:31.237Z,100927.30
2019-02-23T05:05:59.924Z,100933.39
2019-02-23T05:08:28.604Z,100936.36
2019-02-23T05:10:57.275Z,100942.45
2019-02-23T05:13:25.961Z,100947.58
2019-02-23T05:15:54.634Z,100952.20
2019-02-23T05:18:23.281Z,100962.78
2019-02-23T05:20:52.263Z,100976.83
2019-02-23T05:23:21.256Z,100981.20
2019-02-23T05:25:50.554Z,100981.20
2019-02-23T05:28:19.542Z,100978.95
2019-02-23T05:30:48.221Z,100975.05
2019-02-23T05:33:17.431Z,100974.95
2019-02-23T05:35:46.356Z,100985.73
2019-02-23T05:38:15.530Z,100978.62
2019-02-23T05:40:44.209Z,100977.51
2019-02-23T05:43:13.395Z,100980.23
2019-02-23T05:45:42.099Z,100976.39
2019-02-23T05:48:10.763Z,100973.20
2019-02-23T05:50:39.437Z,100979.70
2019-02-23T05:53:08.089Z,100983.67
2019-02-23T05:55:36.752Z,100991.28
2019-02-23T05:58:05.423Z,100990.44
2019-02-23T06:00:34.710Z,100983.47
2019-02-23T06:03:03.394Z,100981.81
2019-02-23T06:05:32.061Z,100982.19
2019-02-23T06:08:00.727Z,100992.53
2019-02-23T06:10:30.673Z,101002.86
2019-02-23T06:13:00.297Z,100998.45
2019-02-23T06:15:28.965Z,101002.97
2019-02-23T06:17:57.966Z,100991.96
2019-02-23T06:20:26.617Z,100999.64
2019-02-23T06:22:55.296Z,100990.11
2019-02-23T06:25:24.232Z,100997.98
2019-02-23T06:27:53.221Z,100996.06
2019-02-23T06:30:22.397Z,100999.43
2019-02-23T06:32:51.411Z,101005.73
2019-02-23T06:35:20.058Z,100997.98
2019-02-23T06:37:48.760Z,101000.41
2019-02-23T06:40:17.488Z,100939.02
2019-02-23T06:42:46.789Z,101000.16
2019-02-23T06:45:15.454Z,101007.74
2019-02-23T06:47:46.490Z,101017.73
2019-02-23T06:50:15.143Z,101015.06
2019-02-23T06:52:43.809Z,101020.42
2019-02-23T06:55:12.728Z,101032.74
2019-02-23T06:57:41.751Z,101030.88
2019-02-23T07:00:12.798Z,101029.80
2019-02-23T07:02:41.772Z,101027.61
2019-02-23T07:05:10.863Z,101018.97
2019-02-23T07:07:39.768Z,101024.70
2019-02-23T07:10:10.065Z,101021.16
2019-02-23T07:12:38.977Z,101033.37
2019-02-23T07:15:08.192Z,101035.96
2019-02-23T07:17:37.275Z,101042.36
2019-02-23T07:20:06.809Z,101037.98
2019-02-23T07:22:35.477Z,101038.39
2019-02-23T07:25:04.700Z,101036.25
2019-02-23T07:27:33.958Z,101031.73
2019-02-23T07:30:03.057Z,101031.17
2019-02-23T07:32:31.733Z,101026.32
2019-02-23T07:35:00.743Z,101028.41
2019-02-23T07:37:29.418Z,101017.44
2019-02-23T07:39:58.412Z,101008.44
2019-02-23T07:42:27.170Z,101003.88
2019-02-23T07:44:56.150Z,101003.13
2019-02-23T07:47:24.817Z,100998.74
2019-02-23T07:49:53.491Z,101004.98
2019-02-23T07:52:26.338Z,101005.63
2019-02-23T07:54:52.959Z,101004.02
2019-02-23T07:57:21.872Z,101008.50
2019-02-23T07:59:50.568Z,101005.25
2019-02-23T08:02:19.239Z,101006.77
2019-02-23T08:04:48.239Z,101006.44
2019-02-23T08:07:16.892Z,101012.42
2019-02-23T08:09:45.923Z,101017.91
2019-02-23T08:12:14.603Z,101009.85
2019-02-23T08:14:43.593Z,101011.84
2019-02-23T08:17:12.795Z,101018.16
2019-02-23T08:19:41.462Z,101022.70
2019-02-23T08:22:10.456Z,101024.69
2019-02-23T08:24:39.433Z,101024.10
2019-02-23T08:27:08.394Z,101018.52
2019-02-23T08:29:37.653Z,101025.28
2019-02-23T08:32:06.643Z,101025.41
2019-02-23T08:34:35.591Z,101021.51
2019-02-23T08:37:04.242Z,101024.09
2019-02-23T08:39:32.944Z,101022.67
2019-02-23T08:42:01.611Z,101029.13
2019-02-23T08:44:30.542Z,101028.96
2019-02-23T08:46:59.193Z,101022.28
2019-02-23T08:49:28.156Z,101022.30
2019-02-23T08:51:57.179Z,101021.28
2019-02-23T08:54:26.145Z,101017.67
2019-02-23T08:56:55.417Z,101009.77
2019-02-23T08:59:24.170Z,101008.70
2019-02-23T09:01:52.868Z,101012.48
2019-02-23T09:04:22.119Z,101015.02
2019-02-23T09:06:51.050Z,101015.86
2019-02-23T09:09:20.127Z,101023.17
2019-02-23T09:11:49.027Z,101024.85
2019-02-23T09:14:17.943Z,101020.31
2019-02-23T09:16:46.997Z,101028.88
2019-02-23T09:19:15.968Z,101024.20
2019-02-23T09:21:45.331Z,101028.29
2019-02-23T09:24:14.061Z,101025.80
2019-02-23T09:26:43.132Z,101023.02
2019-02-23T09:29:12.006Z,101023.23
2019-02-23T09:31:40.916Z,101020.10
2019-02-23T09:34:10.001Z,101020.84
2019-02-23T09:36:38.915Z,101018.25
2019-02-23T09:39:07.692Z,101000.52
2019-02-23T09:41:36.344Z,100998.44
2019-02-23T09:44:05.445Z,101002.20
2019-02-23T09:46:34.151Z,101005.94
2019-02-23T09:49:03.166Z,101009.39
2019-02-23T09:51:32.157Z,101014.59
2019-02-23T09:54:01.162Z,101017.12
2019-02-23T09:56:29.837Z,101008.88
2019-02-23T09:58:58.847Z,101008.03
2019-02-23T10:01:27.588Z,101008.31
2019-02-23T10:03:56.249Z,101016.42
2019-02-23T10:06:24.940Z,101017.84
2019-02-23T10:08:53.604Z,101015.00
2019-02-23T10:11:22.880Z,101014.95
2019-02-23T10:13:51.905Z,101001.06
2019-02-23T10:16:20.585Z,100990.00
2019-02-23T10:18:49.310Z,100998.45
2019-02-23T10:21:18.340Z,101005.81
2019-02-23T10:23:47.303Z,101000.88
2019-02-23T10:26:16.333Z,101013.55
2019-02-23T10:28:45.008Z,101009.95
2019-02-23T10:31:15.357Z,100995.36
2019-02-23T10:33:47.619Z,100993.84
2019-02-23T10:36:16.099Z,100988.94
2019-02-23T10:38:45.060Z,100993.44
2019-02-23T10:41:15.399Z,100990.61
2019-02-23T10:43:44.662Z,100992.75
2019-02-23T10:46:13.590Z,100993.55
2019-02-23T10:48:42.414Z,100982.70
2019-02-23T10:51:11.830Z,100972.11
2019-02-23T10:53:40.738Z,100969.44
2019-02-23T10:56:10.892Z,100957.78
2019-02-23T10:58:39.557Z,100958.85
2019-02-23T11:01:08.306Z,100945.39
2019-02-23T11:03:37.437Z,100941.01
2019-02-23T11:06:06.597Z,100941.91
2019-02-23T11:08:35.917Z,100927.70
2019-02-23T11:11:05.838Z,100925.91
2019-02-23T11:13:39.538Z,100928.02
2019-02-23T11:16:09.009Z,100930.56
2019-02-23T11:18:38.592Z,100928.89
2019-02-23T11:21:08.363Z,100921.81
2019-02-23T11:23:44.223Z,100926.14
2019-02-23T11:26:08.730Z,100924.92
2019-02-23T11:28:41.080Z,100926.14
2019-02-23T11:31:11.271Z,100927.64
2019-02-23T11:33:43.949Z,100932.86
2019-02-23T11:36:12.953Z,100929.86
2019-02-23T11:38:41.666Z,100935.94
2019-02-23T11:41:10.802Z,100928.58
2019-02-23T11:43:39.497Z,100922.67
2019-02-23T11:46:08.187Z,100922.78
2019-02-23T11:48:36.871Z,100918.63
2019-02-23T11:51:06.440Z,100911.00
2019-02-23T11:53:35.172Z,100905.42
2019-02-23T11:56:03.961Z,100899.77
2019-02-23T11:58:33.229Z,100895.52
2019-02-23T12:01:02.275Z,100885.11
2019-02-23T12:03:30.933Z,100885.94
2019-02-23T12:05:59.667Z,100884.53
2019-02-23T12:08:28.353Z,100885.81
2019-02-23T12:10:57.357Z,100889.82
2019-02-23T12:13:26.064Z,100893.27
2019-02-23T12:15:55.035Z,100880.00
2019-02-23T12:18:24.089Z,100872.51
2019-02-23T12:20:53.039Z,100865.21
2019-02-23T12:23:21.760Z,100867.09
2019-02-23T12:25:51.263Z,100863.76
2019-02-23T12:28:19.965Z,100861.13
2019-02-23T12:30:48.911Z,100865.16
2019-02-23T12:33:17.590Z,100863.05
2019-02-23T12:35:46.509Z,100854.39
2019-02-23T12:38:15.216Z,100853.44
2019-02-23T12:40:44.154Z,100852.77
2019-02-23T12:43:12.867Z,100853.61
2019-02-23T12:45:42.063Z,100847.23
2019-02-23T12:48:11.075Z,100844.20
2019-02-23T12:50:40.217Z,100846.41
2019-02-23T12:53:09.162Z,100851.79
2019-02-23T12:55:38.348Z,100849.60
2019-02-23T12:58:09.948Z,100853.61
2019-02-23T13:00:38.680Z,100847.28
2019-02-23T13:03:08.685Z,100851.82
2019-02-23T13:05:37.617Z,100849.43
2019-02-23T13:08:06.454Z,100853.61
2019-02-23T13:10:35.210Z,100848.64
2019-02-23T13:13:34.152Z,100848.04
2019-02-23T13:16:26.980Z,100849.90
2019-02-23T13:19:40.261Z,100847.48
2019-02-23T13:22:56.582Z,100845.31
2019-02-23T13:26:02.886Z,100848.34
2019-02-23T13:29:07.151Z,100844.25
2019-02-23T13:32:00.570Z,100850.03
2019-02-23T13:34:55.656Z,100846.14
2019-02-23T13:37:55.013Z,100845.38
2019-02-23T13:40:49.529Z,100845.49
2019-02-23T13:43:46.283Z,100847.99
2019-02-23T13:46:58.184Z,100842.02
2019-02-23T13:50:02.658Z,100846.00
2019-02-23T13:52:59.000Z,100836.25
2019-02-23T13:56:02.471Z,100832.25
2019-02-23T13:59:10.686Z,100835.84
2019-02-23T14:02:36.777Z,100821.80
2019-02-23T14:05:35.739Z,100816.89
2019-02-23T14:08:24.194Z,100806.70
2019-02-23T14:11:27.369Z,100806.70
2019-02-23T14:14:14.466Z,100799.70
2019-02-23T14:17:06.080Z,100791.94
2019-02-23T14:20:11.770Z,100793.60
2019-02-23T14:23:19.747Z,100797.10
2019-02-23T14:26:11.869Z,100791.92
2019-02-23T14:29:12.993Z,100795.83
2019-02-23T14:32:16.591Z,100798.83
2019-02-23T14:35:36.118Z,100805.58
2019-02-23T14:38:33.914Z,100803.30
2019-02-23T14:41:28.344Z,100803.30
2019-02-23T14:44:32.210Z,100808.70
2019-02-23T14:47:35.516Z,100796.59
2019-02-23T14:50:41.191Z,100794.61
2019-02-23T14:53:27.942Z,100781.20
2019-02-23T14:56:35.020Z,100782.62
2019-02-23T14:59:30.458Z,100790.25
2019-02-23T15:02:42.215Z,100790.47
2019-02-23T15:05:51.412Z,100789.37
2019-02-23T15:08:41.476Z,100793.47
2019-02-23T15:11:55.292Z,100796.70
2019-02-23T15:15:05.183Z,100798.86
2019-02-23T15:17:55.592Z,100800.11
2019-02-23T15:20:59.957Z,100801.05
2019-02-23T15:23:42.167Z,100802.29
2019-02-23T15:26:28.244Z,100808.09
2019-02-23T15:29:44.092Z,100811.22
2019-02-23T15:33:12.553Z,100806.81
2019-02-23T15:36:30.793Z,100800.84
2019-02-23T15:39:37.901Z,100815.55
2019-02-23T15:42:53.883Z,100812.24
2019-02-23T15:45:58.833Z,100813.61
2019-02-23T15:48:43.903Z,100805.91
2019-02-23T15:51:12.880Z,100804.75
2019-02-23T15:53:41.587Z,100801.72
2019-02-23T15:56:10.905Z,100802.17
2019-02-23T15:58:39.591Z,100802.05
2019-02-23T16:01:08.765Z,100806.58
2019-02-23T16:03:37.496Z,100804.53
2019-02-23T16:06:07.830Z,100797.89
2019-02-23T16:08:36.821Z,100795.36
2019-02-23T16:11:05.526Z,100797.33
2019-02-23T16:13:34.678Z,100796.52
2019-02-23T16:16:03.438Z,100788.64
2019-02-23T16:18:32.455Z,100793.52
2019-02-23T16:21:01.226Z,100795.25
2019-02-23T16:23:35.330Z,100795.91
2019-02-23T16:26:00.650Z,100799.17
2019-02-23T16:28:29.802Z,100798.89
2019-02-23T16:30:58.615Z,100796.23
2019-02-23T16:33:27.261Z,100801.81
2019-02-23T16:35:56.362Z,100793.80
2019-02-23T16:38:25.287Z,100800.25
2019-02-23T16:40:54.479Z,100807.72
2019-02-23T16:43:23.132Z,100801.88
2019-02-23T16:45:51.803Z,100804.93
2019-02-23T16:48:20.756Z,100737.94
2019-02-23T16:50:49.433Z,100813.20
2019-02-23T16:53:18.465Z,100811.15
2019-02-23T16:55:50.926Z,100803.44
2019-02-23T16:58:17.549Z,100799.79
2019-02-23T17:00:46.797Z,100799.52
2019-02-23T17:03:15.890Z,100802.52
2019-02-23T17:05:44.597Z,100800.28
2019-02-23T17:08:13.285Z,100813.07
2019-02-23T17:10:42.041Z,100805.48
2019-02-23T17:13:10.729Z,100807.81
2019-02-23T17:15:39.436Z,100807.94
2019-02-23T17:18:08.601Z,100805.70
2019-02-23T17:20:37.508Z,100815.20
2019-02-23T17:23:06.271Z,100812.30
2019-02-23T17:25:35.172Z,100822.66
2019-02-23T17:28:06.969Z,100826.94
2019-02-23T17:30:34.272Z,100827.08
2019-02-23T17:33:04.763Z,100818.64
2019-02-23T17:35:33.437Z,100814.91
2019-02-23T17:38:02.360Z,100818.09
2019-02-23T17:40:31.025Z,100819.03
2019-02-23T17:42:59.935Z,100814.31
2019-02-23T17:45:28.616Z,100814.03
2019-02-23T17:47:57.524Z,100817.80
2019-02-23T17:50:26.200Z,100813.58
2019-02-23T17:52:55.385Z,100816.58
2019-02-23T17:55:24.049Z,100817.73
2019-02-23T17:57:52.730Z,100819.93
2019-02-23T18:00:24.179Z,100819.23
2019-02-23T18:02:53.463Z,100819.78
2019-02-23T18:05:22.386Z,100817.38
2019-02-23T18:07:51.504Z,100819.65
2019-02-23T18:10:20.163Z,100811.17
2019-02-23T18:12:50.331Z,100808.14
2019-02-23T18:15:26.774Z,100804.83
2019-02-23T18:17:56.966Z,100796.45
2019-02-23T18:20:32.535Z,100798.34
2019-02-23T18:23:07.991Z,100791.09
2019-02-23T18:25:37.040Z,100787.92
2019-02-23T18:28:06.260Z,100787.31
2019-02-23T18:30:36.218Z,100787.02
2019-02-23T18:33:04.972Z,100795.69
2019-02-23T18:35:34.141Z,100797.61
2019-02-23T18:38:03.353Z,100795.17
2019-02-23T18:40:32.225Z,100788.84
2019-02-23T18:43:03.524Z,100792.55
2019-02-23T18:45:32.756Z,100793.28
2019-02-23T18:48:01.428Z,100788.23
2019-02-23T18:50:30.452Z,100785.05
2019-02-23T18:52:59.116Z,100786.55
2019-02-23T18:55:27.784Z,100790.35
2019-02-23T18:57:57.504Z,100783.77
2019-02-23T19:00:26.568Z,100791.92
2019-02-23T19:02:55.233Z,100786.58
2019-02-23T19:05:24.445Z,100788.70
2019-02-23T19:08:02.142Z,100784.33
2019-02-23T19:10:31.003Z,100785.77
2019-02-23T19:13:00.132Z,100788.41
2019-02-23T19:15:29.226Z,100785.39
2019-02-23T19:17:59.167Z,100783.41
2019-02-23T19:20:29.724Z,100787.48
2019-02-23T19:23:03.131Z,100787.17
2019-02-23T19:25:32.087Z,100792.08
2019-02-23T19:28:01.249Z,100795.95
2019-02-23T19:30:29.917Z,100790.36
2019-02-23T19:32:58.853Z,100778.88
2019-02-23T19:35:27.528Z,100777.75
2019-02-23T19:37:56.419Z,100777.23
2019-02-23T19:40:25.318Z,100784.25
2019-02-23T19:42:54.207Z,100789.37
2019-02-23T19:45:23.133Z,100791.53
2019-02-23T19:47:52.280Z,100783.70
2019-02-23T19:50:27.881Z,100779.31
2019-02-23T19:52:56.549Z,100783.41
2019-02-23T19:55:25.222Z,100788.02
2019-02-23T19:57:54.123Z,100780.67
2019-02-23T20:00:23.051Z,100774.33
2019-02-23T20:02:51.974Z,100777.80
2019-02-23T20:05:20.645Z,100778.23
2019-02-23T20:07:49.322Z,100777.40
2019-02-23T20:10:18.002Z,100781.23
2019-02-23T20:12:46.676Z,100778.52
2019-02-23T20:15:15.625Z,100778.59
2019-02-23T20:17:44.340Z,100780.35
2019-02-23T20:20:15.355Z,100784.19
2019-02-23T20:22:44.237Z,100786.50
2019-02-23T20:25:13.161Z,100783.66
2019-02-23T20:27:41.904Z,100776.07
2019-02-23T20:30:11.003Z,100782.25
2019-02-23T20:32:39.747Z,100784.30
2019-02-23T20:35:08.625Z,100785.13
2019-02-23T20:37:37.376Z,100788.12
2019-02-23T20:40:07.127Z,100783.02
2019-02-23T20:42:36.151Z,100778.53
2019-02-23T20:45:05.278Z,100775.66
2019-02-23T20:47:37.459Z,100785.24
2019-02-23T20:50:08.271Z,100785.67
2019-02-23T20:52:37.163Z,100789.46
2019-02-23T20:55:06.149Z,100791.07
2019-02-23T20:57:35.109Z,100792.34
2019-02-23T21:00:04.407Z,100801.59
2019-02-23T21:02:33.204Z,100794.40
2019-02-23T21:05:06.625Z,100800.78
2019-02-23T21:07:35.788Z,100802.74
2019-02-23T21:10:05.062Z,100805.26
2019-02-23T21:12:35.086Z,100804.02
2019-02-23T21:15:03.988Z,100820.27
2019-02-23T21:17:32.883Z,100818.30
2019-02-23T21:20:01.845Z,100818.23
2019-02-23T21:22:30.481Z,100818.70
2019-02-23T21:24:59.396Z,100809.32
2019-02-23T21:27:28.209Z,100810.67
2019-02-23T21:29:56.890Z,100810.64
2019-02-23T21:32:25.589Z,100809.71
2019-02-23T21:34:54.249Z,100816.24
2019-02-23T21:37:23.166Z,100816.06
2019-02-23T21:39:52.086Z,100814.52
2019-02-23T21:42:20.737Z,100815.15
2019-02-23T21:44:49.443Z,100817.34
2019-02-23T21:47:18.583Z,100818.66
2019-02-23T21:49:47.519Z,100819.28
2019-02-23T21:52:16.203Z,100818.77
2019-02-23T21:54:45.146Z,100819.55
2019-02-23T21:57:22.052Z,100815.95
2019-02-23T21:59:44.720Z,100813.14
2019-02-23T22:02:13.622Z,100811.60
2019-02-23T22:04:42.332Z,100818.71
2019-02-23T22:07:11.239Z,100829.13
2019-02-23T22:09:40.455Z,100832.88
2019-02-23T22:12:09.407Z,100834.19
2019-02-23T22:14:38.109Z,100830.77
2019-02-23T22:17:06.773Z,100836.01
2019-02-23T22:19:35.552Z,100835.62
2019-02-23T22:22:04.490Z,100827.03
2019-02-23T22:24:33.419Z,100826.84
2019-02-23T22:27:02.373Z,100823.70
2019-02-23T22:29:31.297Z,100817.03
2019-02-23T22:32:00.230Z,100813.43
2019-02-23T22:34:28.967Z,100817.83
2019-02-23T22:36:57.916Z,100811.38
2019-02-23T22:39:26.837Z,100804.96
2019-02-23T22:41:55.513Z,100801.38
2019-02-23T22:44:24.191Z,100795.48
2019-02-23T22:46:53.120Z,100798.30
2019-02-23T22:49:21.807Z,100801.66
2019-02-23T22:51:50.724Z,100806.62
2019-02-23T22:54:21.430Z,100804.55
2019-02-23T22:56:50.114Z,100796.52
2019-02-23T22:59:19.313Z,100807.45
2019-02-23T23:01:48.420Z,100800.40
2019-02-23T23:04:17.327Z,100807.27
2019-02-23T23:06:46.110Z,100804.47
2019-02-23T23:09:18.391Z,100802.17
2019-02-23T23:11:47.074Z,100799.60
2019-02-23T23:14:16.100Z,100796.09
2019-02-23T23:16:44.776Z,100790.67
2019-02-23T23:19:13.535Z,100793.91
2019-02-23T23:21:44.343Z,100785.31
2019-02-23T23:24:13.021Z,100783.30
2019-02-23T23:26:41.768Z,100797.77
2019-02-23T23:29:10.742Z,100801.09
2019-02-23T23:31:39.508Z,100800.67
2019-02-23T23:34:08.182Z,100801.13
2019-02-23T23:36:36.903Z,100794.04
2019-02-23T23:39:06.827Z,100799.45
2019-02-23T23:41:35.777Z,100793.72
2019-02-23T23:44:04.452Z,100792.59
2019-02-23T23:46:33.393Z,100798.45
2019-02-23T23:49:02.553Z,100796.91
2019-02-23T23:51:31.254Z,100800.97
2019-02-23T23:54:00.176Z,100798.58
2019-02-23T23:56:28.857Z,100792.55
2019-02-23T23:58:57.762Z,100792.20
